sensor_id;sensor_type;location;lat;lon;timestamp;P1;durP1;ratioP1;P2;durP2;ratioP2
41923;SDS011;27613;48.116;11.656;2022-12-07T14:37:11;12.35;;;9.32;;
41923;SDS011;27613;48.116;11.656;2022-12-07T14:39:37;10.27;;;7.57;;
41923;SDS011;27613;48.116;11.656;2022-12-07T14:42:03;9.60;;;7.35;;
41923;SDS011;27613;48.116;11.656;2022-12-07T14:44:29;8.02;;;6.25;;
41923;SDS011;27613;48.116;11.656;2022-12-07T14:46:54;9.23;;;6.80;;
41923;SDS011;27613;48.116;11.656;2022-12-07T14:49:20;8.60;;;7.03;;
41923;SDS011;27613;48.116;11.656;2022-12-07T14:51:46;9.15;;;7.10;;
41923;SDS011;27613;48.116;11.656;2022-12-07T14:54:19;8.55;;;6.85;;
41923;SDS011;27613;48.116;11.656;2022-12-07T14:56:45;10.30;;;8.07;;
41923;SDS011;27613;48.116;11.656;2022-12-07T14:59:14;12.07;;;7.53;;
41923;SDS011;27613;48.116;11.656;2022-12-07T15:01:40;10.98;;;7.32;;
41923;SDS011;27613;48.116;11.656;2022-12-07T15:04:06;9.40;;;7.47;;
41923;SDS011;27613;48.116;11.656;2022-12-07T15:06:32;15.00;;;8.60;;
41923;SDS011;27613;48.116;11.656;2022-12-07T15:08:57;10.02;;;7.65;;
41923;SDS011;27613;48.116;11.656;2022-12-07T15:11:23;11.02;;;8.63;;
41923;SDS011;27613;48.116;11.656;2022-12-07T15:13:48;9.43;;;7.60;;
41923;SDS011;27613;48.116;11.656;2022-12-07T15:16:32;16.02;;;7.82;;
41923;SDS011;27613;48.116;11.656;2022-12-07T15:18:59;10.15;;;8.13;;
41923;SDS011;27613;48.116;11.656;2022-12-07T15:21:24;12.65;;;7.90;;
41923;SDS011;27613;48.116;11.656;2022-12-07T15:23:50;11.07;;;9.10;;
41923;SDS011;27613;48.116;11.656;2022-12-07T15:26:16;13.25;;;9.48;;
41923;SDS011;27613;48.116;11.656;2022-12-07T15:28:43;11.70;;;8.75;;
41923;SDS011;27613;48.116;11.656;2022-12-07T15:31:12;11.68;;;8.07;;
41923;SDS011;27613;48.116;11.656;2022-12-07T15:33:39;12.90;;;8.90;;
41923;SDS011;27613;48.116;11.656;2022-12-07T15:36:05;11.57;;;9.00;;
41923;SDS011;27613;48.116;11.656;2022-12-07T15:38:31;12.95;;;9.38;;
41923;SDS011;27613;48.116;11.656;2022-12-07T15:40:57;12.38;;;8.75;;
41923;SDS011;27613;48.116;11.656;2022-12-07T15:43:22;11.27;;;9.00;;
41923;SDS011;27613;48.116;11.656;2022-12-07T15:46:07;12.50;;;9.23;;
41923;SDS011;27613;48.116;11.656;2022-12-07T15:48:32;11.35;;;8.95;;
41923;SDS011;27613;48.116;11.656;2022-12-07T15:51:05;11.45;;;9.45;;
41923;SDS011;27613;48.116;11.656;2022-12-07T15:53:32;12.68;;;9.50;;
41923;SDS011;27613;48.116;11.656;2022-12-07T15:55:58;13.18;;;9.65;;
41923;SDS011;27613;48.116;11.656;2022-12-07T15:58:24;12.07;;;8.98;;
41923;SDS011;27613;48.116;11.656;2022-12-07T16:00:49;13.35;;;10.02;;
41923;SDS011;27613;48.116;11.656;2022-12-07T16:03:15;12.55;;;9.93;;
41923;SDS011;27613;48.116;11.656;2022-12-07T16:05:40;12.07;;;9.05;;
41923;SDS011;27613;48.116;11.656;2022-12-07T16:08:06;15.05;;;9.48;;
41923;SDS011;27613;48.116;11.656;2022-12-07T16:10:32;15.20;;;9.68;;
41923;SDS011;27613;48.116;11.656;2022-12-07T16:12:59;13.85;;;10.45;;
41923;SDS011;27613;48.116;11.656;2022-12-07T16:15:25;13.27;;;9.20;;
41923;SDS011;27613;48.116;11.656;2022-12-07T16:17:52;16.98;;;10.02;;
41923;SDS011;27613;48.116;11.656;2022-12-07T16:20:18;13.13;;;9.90;;
41923;SDS011;27613;48.116;11.656;2022-12-07T16:22:44;12.45;;;10.02;;
41923;SDS011;27613;48.116;11.656;2022-12-07T16:25:09;12.60;;;10.23;;
41923;SDS011;27613;48.116;11.656;2022-12-07T16:27:35;13.40;;;10.57;;
41923;SDS011;27613;48.116;11.656;2022-12-07T16:30:00;15.45;;;11.40;;
41923;SDS011;27613;48.116;11.656;2022-12-07T16:32:26;14.20;;;10.98;;
41923;SDS011;27613;48.116;11.656;2022-12-07T16:34:51;20.77;;;11.25;;
41923;SDS011;27613;48.116;11.656;2022-12-07T16:37:17;15.02;;;10.85;;
41923;SDS011;27613;48.116;11.656;2022-12-07T16:39:42;14.43;;;11.07;;
41923;SDS011;27613;48.116;11.656;2022-12-07T16:42:08;13.52;;;10.77;;
41923;SDS011;27613;48.116;11.656;2022-12-07T16:44:33;23.70;;;12.52;;
41923;SDS011;27613;48.116;11.656;2022-12-07T16:46:59;15.68;;;12.35;;
41923;SDS011;27613;48.116;11.656;2022-12-07T16:49:26;16.95;;;13.45;;
41923;SDS011;27613;48.116;11.656;2022-12-07T16:51:52;18.05;;;13.38;;
41923;SDS011;27613;48.116;11.656;2022-12-07T16:54:17;24.20;;;14.43;;
41923;SDS011;27613;48.116;11.656;2022-12-07T16:56:43;22.42;;;14.73;;
41923;SDS011;27613;48.116;11.656;2022-12-07T16:59:08;17.45;;;12.75;;
41923;SDS011;27613;48.116;11.656;2022-12-07T17:01:34;15.07;;;12.35;;
41923;SDS011;27613;48.116;11.656;2022-12-07T17:04:00;20.92;;;13.13;;
41923;SDS011;27613;48.116;11.656;2022-12-07T17:06:27;18.17;;;12.57;;
41923;SDS011;27613;48.116;11.656;2022-12-07T17:08:54;14.60;;;10.70;;
41923;SDS011;27613;48.116;11.656;2022-12-07T17:11:26;13.15;;;10.52;;
41923;SDS011;27613;48.116;11.656;2022-12-07T17:13:54;16.95;;;12.27;;
41923;SDS011;27613;48.116;11.656;2022-12-07T17:16:38;15.50;;;11.63;;
41923;SDS011;27613;48.116;11.656;2022-12-07T17:19:05;15.10;;;11.45;;
41923;SDS011;27613;48.116;11.656;2022-12-07T17:21:32;14.52;;;11.65;;
41923;SDS011;27613;48.116;11.656;2022-12-07T17:23:58;18.80;;;12.95;;
41923;SDS011;27613;48.116;11.656;2022-12-07T17:26:25;22.65;;;16.60;;
41923;SDS011;27613;48.116;11.656;2022-12-07T17:28:52;16.27;;;12.32;;
41923;SDS011;27613;48.116;11.656;2022-12-07T17:31:18;22.45;;;13.55;;
41923;SDS011;27613;48.116;11.656;2022-12-07T17:33:46;20.45;;;14.23;;
41923;SDS011;27613;48.116;11.656;2022-12-07T17:36:12;16.40;;;11.65;;
41923;SDS011;27613;48.116;11.656;2022-12-07T17:38:40;17.13;;;12.45;;
41923;SDS011;27613;48.116;11.656;2022-12-07T17:41:08;14.50;;;10.90;;
41923;SDS011;27613;48.116;11.656;2022-12-07T17:44:00;16.92;;;11.60;;
41923;SDS011;27613;48.116;11.656;2022-12-07T17:46:26;18.95;;;12.15;;
41923;SDS011;27613;48.116;11.656;2022-12-07T17:48:55;15.25;;;11.65;;
41923;SDS011;27613;48.116;11.656;2022-12-07T17:51:31;16.33;;;11.73;;
41923;SDS011;27613;48.116;11.656;2022-12-07T17:54:15;15.52;;;11.43;;
41923;SDS011;27613;48.116;11.656;2022-12-07T17:56:41;12.85;;;9.65;;
41923;SDS011;27613;48.116;11.656;2022-12-07T17:59:07;16.27;;;10.95;;
41923;SDS011;27613;48.116;11.656;2022-12-07T18:01:33;15.90;;;10.70;;
41923;SDS011;27613;48.116;11.656;2022-12-07T18:03:59;20.92;;;11.15;;
41923;SDS011;27613;48.116;11.656;2022-12-07T18:06:25;15.15;;;10.85;;
41923;SDS011;27613;48.116;11.656;2022-12-07T18:08:50;15.75;;;10.77;;
41923;SDS011;27613;48.116;11.656;2022-12-07T18:11:16;22.55;;;10.18;;
41923;SDS011;27613;48.116;11.656;2022-12-07T18:13:42;15.30;;;11.23;;
41923;SDS011;27613;48.116;11.656;2022-12-07T18:16:08;15.00;;;10.40;;
41923;SDS011;27613;48.116;11.656;2022-12-07T18:18:39;13.32;;;10.45;;
41923;SDS011;27613;48.116;11.656;2022-12-07T18:21:09;17.23;;;10.93;;
41923;SDS011;27613;48.116;11.656;2022-12-07T18:23:42;16.85;;;11.32;;
41923;SDS011;27613;48.116;11.656;2022-12-07T18:26:08;16.13;;;10.95;;
41923;SDS011;27613;48.116;11.656;2022-12-07T18:28:35;15.68;;;10.55;;
41923;SDS011;27613;48.116;11.656;2022-12-07T18:31:00;16.60;;;11.77;;
41923;SDS011;27613;48.116;11.656;2022-12-07T18:33:26;16.30;;;12.35;;
41923;SDS011;27613;48.116;11.656;2022-12-07T18:35:52;14.75;;;10.48;;
41923;SDS011;27613;48.116;11.656;2022-12-07T18:38:18;16.85;;;11.20;;
41923;SDS011;27613;48.116;11.656;2022-12-07T18:40:43;14.95;;;10.73;;
41923;SDS011;27613;48.116;11.656;2022-12-07T18:43:10;18.88;;;10.88;;
41923;SDS011;27613;48.116;11.656;2022-12-07T18:45:38;16.85;;;11.57;;
41923;SDS011;27613;48.116;11.656;2022-12-07T18:48:05;17.15;;;11.45;;
41923;SDS011;27613;48.116;11.656;2022-12-07T18:50:31;17.52;;;12.05;;
41923;SDS011;27613;48.116;11.656;2022-12-07T18:52:58;18.75;;;13.73;;
41923;SDS011;27613;48.116;11.656;2022-12-07T18:55:25;25.15;;;17.13;;
41923;SDS011;27613;48.116;11.656;2022-12-07T18:57:52;27.27;;;18.10;;
41923;SDS011;27613;48.116;11.656;2022-12-07T19:00:18;36.53;;;18.17;;
41923;SDS011;27613;48.116;11.656;2022-12-07T19:02:44;17.88;;;12.80;;
41923;SDS011;27613;48.116;11.656;2022-12-07T19:05:09;22.05;;;14.70;;
41923;SDS011;27613;48.116;11.656;2022-12-07T19:07:35;48.92;;;30.70;;
41923;SDS011;27613;48.116;11.656;2022-12-07T19:10:00;46.10;;;31.08;;
41923;SDS011;27613;48.116;11.656;2022-12-07T19:12:26;39.75;;;24.95;;
41923;SDS011;27613;48.116;11.656;2022-12-07T19:14:51;38.25;;;16.58;;
41923;SDS011;27613;48.116;11.656;2022-12-07T19:17:18;39.63;;;26.27;;
41923;SDS011;27613;48.116;11.656;2022-12-07T19:19:45;65.13;;;35.90;;
41923;SDS011;27613;48.116;11.656;2022-12-07T19:22:13;94.68;;;45.28;;
41923;SDS011;27613;48.116;11.656;2022-12-07T19:24:40;30.63;;;20.27;;
41923;SDS011;27613;48.116;11.656;2022-12-07T19:27:07;25.10;;;16.02;;
41923;SDS011;27613;48.116;11.656;2022-12-07T19:29:33;26.88;;;15.00;;
41923;SDS011;27613;48.116;11.656;2022-12-07T19:32:00;20.45;;;14.57;;
41923;SDS011;27613;48.116;11.656;2022-12-07T19:34:26;19.98;;;11.80;;
41923;SDS011;27613;48.116;11.656;2022-12-07T19:36:52;22.70;;;15.73;;
41923;SDS011;27613;48.116;11.656;2022-12-07T19:39:17;21.95;;;14.73;;
41923;SDS011;27613;48.116;11.656;2022-12-07T19:41:43;20.90;;;14.20;;
41923;SDS011;27613;48.116;11.656;2022-12-07T19:46:36;20.40;;;12.52;;
41923;SDS011;27613;48.116;11.656;2022-12-07T19:49:02;17.42;;;12.57;;
41923;SDS011;27613;48.116;11.656;2022-12-07T19:51:29;18.27;;;11.77;;
41923;SDS011;27613;48.116;11.656;2022-12-07T19:53:58;18.08;;;11.15;;
41923;SDS011;27613;48.116;11.656;2022-12-07T19:56:25;16.05;;;12.52;;
41923;SDS011;27613;48.116;11.656;2022-12-07T19:58:52;23.20;;;14.60;;
41923;SDS011;27613;48.116;11.656;2022-12-07T20:01:18;21.20;;;13.98;;
41923;SDS011;27613;48.116;11.656;2022-12-07T20:03:44;16.17;;;11.90;;
41923;SDS011;27613;48.116;11.656;2022-12-07T20:06:14;16.95;;;12.50;;
41923;SDS011;27613;48.116;11.656;2022-12-07T20:08:42;18.58;;;13.02;;
41923;SDS011;27613;48.116;11.656;2022-12-07T20:11:08;26.05;;;17.90;;
41923;SDS011;27613;48.116;11.656;2022-12-07T20:13:53;22.23;;;13.60;;
41923;SDS011;27613;48.116;11.656;2022-12-07T20:16:19;19.67;;;13.55;;
41923;SDS011;27613;48.116;11.656;2022-12-07T20:18:45;20.95;;;13.35;;
41923;SDS011;27613;48.116;11.656;2022-12-07T20:21:11;21.50;;;13.95;;
41923;SDS011;27613;48.116;11.656;2022-12-07T20:23:37;19.55;;;13.30;;
41923;SDS011;27613;48.116;11.656;2022-12-07T20:26:04;18.75;;;13.27;;
41923;SDS011;27613;48.116;11.656;2022-12-07T20:28:32;22.42;;;13.98;;
41923;SDS011;27613;48.116;11.656;2022-12-07T20:30:57;18.08;;;13.05;;
41923;SDS011;27613;48.116;11.656;2022-12-07T20:33:23;19.10;;;12.13;;
41923;SDS011;27613;48.116;11.656;2022-12-07T20:35:49;18.10;;;12.00;;
41923;SDS011;27613;48.116;11.656;2022-12-07T20:38:15;15.00;;;11.57;;
41923;SDS011;27613;48.116;11.656;2022-12-07T20:40:45;15.93;;;11.23;;
41923;SDS011;27613;48.116;11.656;2022-12-07T20:43:12;17.00;;;12.60;;
41923;SDS011;27613;48.116;11.656;2022-12-07T20:45:44;16.23;;;12.10;;
41923;SDS011;27613;48.116;11.656;2022-12-07T20:48:10;15.55;;;11.98;;
41923;SDS011;27613;48.116;11.656;2022-12-07T20:50:36;14.50;;;11.23;;
41923;SDS011;27613;48.116;11.656;2022-12-07T20:53:01;16.35;;;12.40;;
41923;SDS011;27613;48.116;11.656;2022-12-07T20:55:27;17.92;;;12.55;;
41923;SDS011;27613;48.116;11.656;2022-12-07T20:57:52;17.58;;;12.27;;
41923;SDS011;27613;48.116;11.656;2022-12-07T21:00:19;14.48;;;10.80;;
41923;SDS011;27613;48.116;11.656;2022-12-07T21:02:45;14.40;;;11.05;;
41923;SDS011;27613;48.116;11.656;2022-12-07T21:05:10;14.57;;;11.02;;
41923;SDS011;27613;48.116;11.656;2022-12-07T21:07:36;19.35;;;10.85;;
41923;SDS011;27613;48.116;11.656;2022-12-07T21:10:03;17.52;;;12.82;;
41923;SDS011;27613;48.116;11.656;2022-12-07T21:12:29;16.77;;;11.57;;
41923;SDS011;27613;48.116;11.656;2022-12-07T21:14:55;17.67;;;11.63;;
41923;SDS011;27613;48.116;11.656;2022-12-07T21:17:20;16.80;;;12.57;;
41923;SDS011;27613;48.116;11.656;2022-12-07T21:19:46;14.75;;;11.38;;
41923;SDS011;27613;48.116;11.656;2022-12-07T21:22:12;16.23;;;11.50;;
41923;SDS011;27613;48.116;11.656;2022-12-07T21:24:37;18.45;;;11.35;;
41923;SDS011;27613;48.116;11.656;2022-12-07T21:27:03;16.20;;;11.23;;
41923;SDS011;27613;48.116;11.656;2022-12-07T21:29:30;16.38;;;12.15;;
41923;SDS011;27613;48.116;11.656;2022-12-07T21:31:56;14.73;;;11.55;;
41923;SDS011;27613;48.116;11.656;2022-12-07T21:34:21;17.65;;;11.90;;
41923;SDS011;27613;48.116;11.656;2022-12-07T21:36:47;19.35;;;12.45;;
41923;SDS011;27613;48.116;11.656;2022-12-07T21:39:13;15.57;;;11.52;;
41923;SDS011;27613;48.116;11.656;2022-12-07T21:41:38;19.58;;;11.48;;
41923;SDS011;27613;48.116;11.656;2022-12-07T21:44:05;13.93;;;10.68;;
41923;SDS011;27613;48.116;11.656;2022-12-07T21:46:32;14.52;;;11.30;;
41923;SDS011;27613;48.116;11.656;2022-12-07T21:48:58;17.23;;;12.60;;
41923;SDS011;27613;48.116;11.656;2022-12-07T21:51:28;24.02;;;12.25;;
41923;SDS011;27613;48.116;11.656;2022-12-07T21:53:54;18.15;;;12.30;;
41923;SDS011;27613;48.116;11.656;2022-12-07T21:56:34;16.95;;;11.23;;
41923;SDS011;27613;48.116;11.656;2022-12-07T21:59:06;17.48;;;12.23;;
41923;SDS011;27613;48.116;11.656;2022-12-07T22:01:40;12.90;;;10.30;;
41923;SDS011;27613;48.116;11.656;2022-12-07T22:04:11;15.55;;;11.70;;
41923;SDS011;27613;48.116;11.656;2022-12-07T22:06:45;14.93;;;11.13;;
41923;SDS011;27613;48.116;11.656;2022-12-07T22:09:11;16.17;;;11.35;;
41923;SDS011;27613;48.116;11.656;2022-12-07T22:11:37;18.33;;;11.38;;
41923;SDS011;27613;48.116;11.656;2022-12-07T22:14:03;14.82;;;11.63;;
41923;SDS011;27613;48.116;11.656;2022-12-07T22:16:48;15.77;;;11.10;;
41923;SDS011;27613;48.116;11.656;2022-12-07T22:19:17;15.82;;;11.27;;
41923;SDS011;27613;48.116;11.656;2022-12-07T22:21:43;14.75;;;11.40;;
41923;SDS011;27613;48.116;11.656;2022-12-07T22:24:09;14.90;;;11.30;;
41923;SDS011;27613;48.116;11.656;2022-12-07T22:26:35;15.70;;;10.75;;
41923;SDS011;27613;48.116;11.656;2022-12-07T22:29:01;15.30;;;11.13;;
41923;SDS011;27613;48.116;11.656;2022-12-07T22:31:26;15.85;;;10.95;;
41923;SDS011;27613;48.116;11.656;2022-12-07T22:33:52;13.25;;;10.48;;
41923;SDS011;27613;48.116;11.656;2022-12-07T22:36:18;14.57;;;10.75;;
41923;SDS011;27613;48.116;11.656;2022-12-07T22:38:44;15.57;;;11.43;;
41923;SDS011;27613;48.116;11.656;2022-12-07T22:43:18;15.98;;;11.23;;
41923;SDS011;27613;48.116;11.656;2022-12-07T22:45:43;16.35;;;11.00;;
41923;SDS011;27613;48.116;11.656;2022-12-07T22:48:17;15.05;;;10.73;;
41923;SDS011;27613;48.116;11.656;2022-12-07T22:50:43;14.95;;;10.98;;
41923;SDS011;27613;48.116;11.656;2022-12-07T22:53:08;15.55;;;11.38;;
41923;SDS011;27613;48.116;11.656;2022-12-07T22:55:37;15.75;;;10.90;;
41923;SDS011;27613;48.116;11.656;2022-12-07T22:58:06;15.57;;;10.60;;
41923;SDS011;27613;48.116;11.656;2022-12-07T23:00:32;15.70;;;10.88;;
41923;SDS011;27613;48.116;11.656;2022-12-07T23:02:57;16.98;;;12.65;;
41923;SDS011;27613;48.116;11.656;2022-12-07T23:05:23;16.48;;;11.70;;
41923;SDS011;27613;48.116;11.656;2022-12-07T23:07:49;18.80;;;11.48;;
41923;SDS011;27613;48.116;11.656;2022-12-07T23:10:15;15.68;;;10.90;;
41923;SDS011;27613;48.116;11.656;2022-12-07T23:12:41;16.42;;;11.30;;
41923;SDS011;27613;48.116;11.656;2022-12-07T23:15:25;22.05;;;11.05;;
41923;SDS011;27613;48.116;11.656;2022-12-07T23:17:50;21.05;;;12.68;;
41923;SDS011;27613;48.116;11.656;2022-12-07T23:20:16;14.20;;;10.75;;
41923;SDS011;27613;48.116;11.656;2022-12-07T23:22:42;16.35;;;11.13;;
41923;SDS011;27613;48.116;11.656;2022-12-07T23:25:08;18.73;;;12.38;;
41923;SDS011;27613;48.116;11.656;2022-12-07T23:27:33;15.18;;;10.95;;
41923;SDS011;27613;48.116;11.656;2022-12-07T23:29:59;13.30;;;9.90;;
41923;SDS011;27613;48.116;11.656;2022-12-07T23:32:25;14.02;;;10.55;;
41923;SDS011;27613;48.116;11.656;2022-12-07T23:34:50;23.73;;;11.25;;
41923;SDS011;27613;48.116;11.656;2022-12-07T23:37:16;13.75;;;10.60;;
41923;SDS011;27613;48.116;11.656;2022-12-07T23:39:41;15.40;;;10.50;;
41923;SDS011;27613;48.116;11.656;2022-12-07T23:42:07;12.32;;;9.95;;
41923;SDS011;27613;48.116;11.656;2022-12-07T23:44:33;26.60;;;10.57;;
41923;SDS011;27613;48.116;11.656;2022-12-07T23:46:58;20.20;;;11.45;;
41923;SDS011;27613;48.116;11.656;2022-12-07T23:49:24;16.23;;;11.48;;
41923;SDS011;27613;48.116;11.656;2022-12-07T23:51:49;14.82;;;10.98;;
41923;SDS011;27613;48.116;11.656;2022-12-07T23:54:15;19.30;;;10.80;;
41923;SDS011;27613;48.116;11.656;2022-12-07T23:56:40;14.00;;;10.95;;
41923;SDS011;27613;48.116;11.656;2022-12-07T23:59:08;14.35;;;10.90;;
